createdAt,value
2022-12-08T00:01:00.559Z,22.55
2022-12-08T00:03:48.152Z,23.29
2022-12-08T00:06:35.758Z,23.18
2022-12-08T00:09:23.409Z,23.38
2022-12-08T00:12:11.056Z,23.11
2022-12-08T00:14:58.658Z,22.93
2022-12-08T00:17:46.293Z,22.94
2022-12-08T00:20:33.871Z,23.62
2022-12-08T00:23:21.470Z,22.81
2022-12-08T00:26:09.057Z,21.63
2022-12-08T00:28:56.629Z,21.33
2022-12-08T00:31:44.339Z,21.48
2022-12-08T00:34:31.969Z,20.87
2022-12-08T00:37:19.546Z,19.81
2022-12-08T00:40:07.273Z,19.55
2022-12-08T00:42:54.905Z,19.28
2022-12-08T00:45:42.548Z,20.18
2022-12-08T00:48:30.186Z,20.61
2022-12-08T00:51:17.746Z,20.15
2022-12-08T00:54:05.324Z,20.01
2022-12-08T00:56:52.898Z,18.93
2022-12-08T00:59:40.471Z,18.90
2022-12-08T01:02:28.039Z,19.92
2022-12-08T01:05:15.642Z,20.07
2022-12-08T01:08:03.276Z,19.83
2022-12-08T01:10:50.945Z,19.43
2022-12-08T01:13:38.514Z,18.84
2022-12-08T01:16:26.165Z,18.93
2022-12-08T01:19:13.820Z,18.58
2022-12-08T01:22:01.406Z,18.82
2022-12-08T01:24:49.032Z,18.27
2022-12-08T01:27:36.601Z,18.27
2022-12-08T01:30:24.335Z,18.77
2022-12-08T01:33:11.935Z,18.24
2022-12-08T01:35:59.579Z,19.25
2022-12-08T01:38:47.167Z,19.09
2022-12-08T01:41:34.780Z,19.22
2022-12-08T01:44:22.411Z,18.78
2022-12-08T01:47:10.010Z,19.04
2022-12-08T01:49:57.590Z,18.97
2022-12-08T01:52:45.133Z,19.05
2022-12-08T01:55:32.730Z,18.65
2022-12-08T01:58:20.318Z,18.33
2022-12-08T02:01:07.968Z,19.06
2022-12-08T02:03:55.567Z,18.50
2022-12-08T02:06:43.166Z,18.01
2022-12-08T02:09:30.755Z,18.07
2022-12-08T02:12:18.317Z,17.76
2022-12-08T02:15:05.897Z,18.01
2022-12-08T02:17:53.533Z,17.87
2022-12-08T02:20:41.097Z,17.63
2022-12-08T02:23:28.707Z,18.49
2022-12-08T02:26:16.277Z,18.28
2022-12-08T02:29:03.852Z,18.30
2022-12-08T02:31:51.418Z,17.67
2022-12-08T02:34:39.026Z,17.94
2022-12-08T02:37:26.607Z,18.71
2022-12-08T02:40:14.249Z,18.60
2022-12-08T02:43:01.833Z,18.53
2022-12-08T02:45:49.456Z,18.26
2022-12-08T02:48:37.064Z,18.55
2022-12-08T02:51:24.619Z,19.06
2022-12-08T02:54:12.218Z,18.85
2022-12-08T02:56:59.789Z,18.76
2022-12-08T02:59:47.393Z,19.01
2022-12-08T03:02:35.027Z,19.37
2022-12-08T03:05:22.647Z,19.16
2022-12-08T03:08:10.272Z,18.87
2022-12-08T03:10:57.951Z,18.52
2022-12-08T03:13:45.517Z,18.90
2022-12-08T03:16:33.103Z,19.01
2022-12-08T03:19:20.651Z,18.66
2022-12-08T03:22:08.265Z,18.01
2022-12-08T03:24:55.827Z,18.34
2022-12-08T03:27:43.445Z,17.91
2022-12-08T03:30:31.052Z,17.89
2022-12-08T03:33:18.641Z,17.47
2022-12-08T03:36:06.221Z,18.06
2022-12-08T03:38:53.833Z,18.50
2022-12-08T03:41:41.423Z,18.45
2022-12-08T03:44:29.003Z,18.66
2022-12-08T03:47:16.588Z,19.21
2022-12-08T03:50:04.590Z,18.41
2022-12-08T03:52:52.291Z,19.07
2022-12-08T03:55:39.869Z,18.33
2022-12-08T03:58:27.450Z,18.66
2022-12-08T04:01:15.023Z,18.40
2022-12-08T04:04:02.590Z,18.34
2022-12-08T04:06:50.274Z,18.13
2022-12-08T04:09:39.823Z,18.39
2022-12-08T04:12:27.417Z,17.75
2022-12-08T04:15:28.281Z,18.75
2022-12-08T04:18:16.874Z,17.87
2022-12-08T04:21:04.471Z,17.99
2022-12-08T04:23:56.094Z,18.08
2022-12-08T04:26:46.838Z,17.78
2022-12-08T04:29:34.421Z,17.90
2022-12-08T04:32:21.983Z,17.86
2022-12-08T04:35:09.569Z,18.22
2022-12-08T04:37:57.182Z,17.67
2022-12-08T04:40:44.739Z,18.30
2022-12-08T04:43:32.342Z,18.48
2022-12-08T04:46:19.950Z,18.53
2022-12-08T04:49:07.675Z,18.61
2022-12-08T04:51:55.240Z,19.34
2022-12-08T04:54:42.834Z,18.79
2022-12-08T04:57:30.390Z,19.06
2022-12-08T05:00:17.985Z,19.94
2022-12-08T05:03:05.609Z,19.33
2022-12-08T05:05:53.285Z,19.12
2022-12-08T05:08:40.852Z,17.86
2022-12-08T05:11:28.446Z,17.86
2022-12-08T05:14:16.058Z,17.62
2022-12-08T05:17:09.172Z,17.87
2022-12-08T05:19:57.198Z,17.42
2022-12-08T05:22:44.799Z,17.21
2022-12-08T05:25:32.385Z,18.47
2022-12-08T05:28:40.646Z,18.65
2022-12-08T05:31:27.562Z,18.04
2022-12-08T05:34:15.177Z,18.65
2022-12-08T05:37:02.869Z,18.23
2022-12-08T05:39:52.436Z,17.76
2022-12-08T05:42:40.134Z,18.03
2022-12-08T05:45:27.749Z,17.80
2022-12-08T05:48:15.385Z,18.19
2022-12-08T05:51:02.980Z,18.94
2022-12-08T05:53:50.602Z,18.43
2022-12-08T05:56:38.202Z,19.57
2022-12-08T05:59:25.788Z,20.01
2022-12-08T06:02:13.545Z,19.37
2022-12-08T06:05:01.243Z,18.00
2022-12-08T06:07:48.842Z,18.06
2022-12-08T06:10:36.467Z,18.05
2022-12-08T06:13:24.075Z,18.11
2022-12-08T06:16:11.725Z,18.41
2022-12-08T06:18:59.313Z,17.82
2022-12-08T06:21:46.882Z,19.21
2022-12-08T06:24:34.495Z,20.41
2022-12-08T06:27:22.060Z,21.29
2022-12-08T06:30:09.637Z,20.91
2022-12-08T06:32:57.207Z,21.29
2022-12-08T06:35:44.806Z,21.97
2022-12-08T06:38:32.418Z,22.64
2022-12-08T06:41:19.980Z,23.60
2022-12-08T06:44:07.566Z,21.49
2022-12-08T06:46:55.156Z,22.54
2022-12-08T06:49:42.900Z,22.69
2022-12-08T06:52:30.567Z,22.69
2022-12-08T06:55:42.393Z,23.50
2022-12-08T06:58:25.771Z,22.78
2022-12-08T07:01:13.471Z,22.92
2022-12-08T07:04:01.086Z,22.79
2022-12-08T07:06:48.680Z,22.84
2022-12-08T07:09:36.244Z,22.83
2022-12-08T07:12:23.899Z,23.00
2022-12-08T07:15:11.483Z,23.01
2022-12-08T07:18:00.331Z,22.94
2022-12-08T07:20:48.211Z,22.42
2022-12-08T07:23:35.797Z,23.58
2022-12-08T07:26:23.403Z,23.25
2022-12-08T07:29:11.049Z,23.46
2022-12-08T07:31:58.607Z,22.77
2022-12-08T07:34:47.228Z,23.32
2022-12-08T07:37:35.058Z,23.01
2022-12-08T07:40:22.615Z,23.13
2022-12-08T07:43:10.242Z,24.00
2022-12-08T07:45:57.906Z,23.99
2022-12-08T07:48:45.525Z,23.87
2022-12-08T07:51:33.135Z,24.83
2022-12-08T07:54:20.718Z,23.48
2022-12-08T07:57:08.297Z,24.10
2022-12-08T07:59:55.904Z,25.14
2022-12-08T08:02:43.599Z,25.06
2022-12-08T08:05:31.224Z,25.43
2022-12-08T08:07:58.686Z,25.22
2022-12-08T08:10:26.612Z,24.47
2022-12-08T08:12:54.584Z,24.44
2022-12-08T08:15:22.046Z,24.39
2022-12-08T08:17:49.700Z,25.16
2022-12-08T08:20:17.422Z,24.78
2022-12-08T08:22:44.759Z,24.86
2022-12-08T08:25:12.090Z,24.89
2022-12-08T08:27:39.448Z,24.90
2022-12-08T08:30:07.095Z,25.08
2022-12-08T08:32:34.982Z,24.27
2022-12-08T08:35:02.772Z,23.40
2022-12-08T08:37:30.612Z,24.35
2022-12-08T08:39:57.925Z,23.74
2022-12-08T08:42:25.259Z,25.14
2022-12-08T08:44:52.618Z,24.39
2022-12-08T08:47:19.983Z,25.23
2022-12-08T08:49:47.403Z,24.94
2022-12-08T08:52:15.083Z,23.80
2022-12-08T08:54:42.390Z,24.37
2022-12-08T08:57:09.780Z,22.49
2022-12-08T08:59:37.089Z,24.18
2022-12-08T09:02:04.679Z,24.85
2022-12-08T09:04:32.061Z,24.28
2022-12-08T09:06:59.543Z,24.33
2022-12-08T09:09:26.792Z,24.83
2022-12-08T09:11:54.085Z,24.37
2022-12-08T09:14:21.433Z,25.62
2022-12-08T09:16:48.838Z,25.96
2022-12-08T09:19:16.134Z,25.26
2022-12-08T09:21:43.412Z,24.75
2022-12-08T09:24:10.754Z,24.76
2022-12-08T09:26:38.129Z,24.67
2022-12-08T09:29:05.487Z,23.89
2022-12-08T09:31:32.955Z,24.57
2022-12-08T09:34:00.299Z,23.73
2022-12-08T09:36:27.638Z,23.31
2022-12-08T09:38:55.043Z,23.54
2022-12-08T09:41:22.363Z,23.41
2022-12-08T09:43:50.037Z,23.42
2022-12-08T09:46:17.625Z,23.01
2022-12-08T09:48:47.386Z,22.17
2022-12-08T09:51:23.562Z,19.56
2022-12-08T09:53:51.023Z,19.27
2022-12-08T09:56:18.395Z,19.75
2022-12-08T09:58:46.153Z,20.14
2022-12-08T10:01:13.678Z,20.19
2022-12-08T10:03:41.011Z,19.92
2022-12-08T10:06:10.318Z,20.01
2022-12-08T10:08:37.624Z,20.40
2022-12-08T10:11:04.927Z,20.35
2022-12-08T10:13:32.234Z,20.06
2022-12-08T10:15:59.544Z,20.70
2022-12-08T10:18:26.860Z,20.32
2022-12-08T10:20:54.145Z,19.58
2022-12-08T10:23:21.591Z,18.60
2022-12-08T10:25:48.951Z,18.62
2022-12-08T10:28:16.282Z,18.34
2022-12-08T10:30:43.547Z,19.72
2022-12-08T10:33:11.212Z,19.43
2022-12-08T10:35:57.434Z,19.05
2022-12-08T10:38:43.346Z,16.61
2022-12-08T10:41:30.940Z,16.47
2022-12-08T10:44:20.365Z,17.10
2022-12-08T10:47:07.995Z,17.54
2022-12-08T10:49:55.607Z,16.90
2022-12-08T10:52:43.195Z,16.53
2022-12-08T10:55:30.747Z,16.97
2022-12-08T10:58:18.337Z,15.58
2022-12-08T11:01:06.054Z,16.25
2022-12-08T11:03:53.747Z,15.76
2022-12-08T11:06:41.320Z,16.25
2022-12-08T11:09:28.887Z,15.39
2022-12-08T11:12:16.482Z,16.15
2022-12-08T11:15:04.050Z,16.16
2022-12-08T11:17:57.398Z,16.08
2022-12-08T11:20:45.283Z,16.49
2022-12-08T11:23:32.897Z,16.53
2022-12-08T11:26:20.482Z,15.90
2022-12-08T11:29:08.047Z,15.54
2022-12-08T11:31:55.728Z,16.06
2022-12-08T11:34:43.429Z,16.59
2022-12-08T11:37:34.741Z,16.00
2022-12-08T11:40:22.913Z,16.02
2022-12-08T11:43:11.695Z,16.59
2022-12-08T11:45:59.415Z,16.23
2022-12-08T11:48:47.061Z,15.93
2022-12-08T11:51:34.649Z,15.55
2022-12-08T11:54:22.262Z,16.30
2022-12-08T11:57:09.899Z,16.67
2022-12-08T11:59:57.506Z,17.38
2022-12-08T12:02:45.179Z,18.05
2022-12-08T12:06:05.328Z,19.22
2022-12-08T12:08:40.415Z,18.40
2022-12-08T12:11:28.098Z,18.97
2022-12-08T12:14:15.689Z,19.11
2022-12-08T12:17:03.453Z,20.89
2022-12-08T12:19:51.145Z,20.89
2022-12-08T12:22:38.742Z,21.20
2022-12-08T12:25:26.307Z,21.01
2022-12-08T12:28:13.899Z,18.90
2022-12-08T12:31:01.528Z,19.91
2022-12-08T12:33:49.177Z,18.43
2022-12-08T12:36:36.789Z,19.81
2022-12-08T12:39:24.372Z,19.52
2022-12-08T12:42:11.982Z,19.37
2022-12-08T12:44:59.600Z,19.97
2022-12-08T12:47:52.397Z,19.34
2022-12-08T12:50:43.374Z,20.35
2022-12-08T12:53:30.994Z,20.89
2022-12-08T12:56:18.586Z,20.71
2022-12-08T12:59:08.174Z,20.68
2022-12-08T13:01:55.767Z,20.67
2022-12-08T13:04:43.380Z,19.65
2022-12-08T13:07:31.079Z,19.67
2022-12-08T13:10:18.661Z,18.07
2022-12-08T13:13:06.282Z,18.65
2022-12-08T13:15:53.892Z,18.68
2022-12-08T13:18:41.498Z,19.02
2022-12-08T13:21:29.121Z,18.79
2022-12-08T13:24:16.767Z,18.77
2022-12-08T13:27:04.348Z,18.52
2022-12-08T13:29:51.967Z,18.12
2022-12-08T13:33:16.245Z,18.01
2022-12-08T13:35:47.091Z,18.21
2022-12-08T13:38:34.683Z,18.55
2022-12-08T13:41:22.282Z,18.15
2022-12-08T13:45:03.688Z,18.20
2022-12-08T13:47:33.329Z,18.36
2022-12-08T13:57:02.435Z,18.16
2022-12-08T13:59:44.651Z,18.06
2022-12-08T14:02:32.264Z,16.72
2022-12-08T14:05:26.599Z,16.13
2022-12-08T14:08:58.006Z,16.88
2022-12-08T14:11:35.030Z,16.52
2022-12-08T14:14:45.894Z,17.55
2022-12-08T14:17:30.199Z,17.42
2022-12-08T14:20:17.786Z,16.91
2022-12-08T14:23:05.392Z,16.88
2022-12-08T14:25:52.971Z,16.20
2022-12-08T14:28:44.780Z,15.42
2022-12-08T14:31:32.948Z,15.32
2022-12-08T14:34:20.585Z,15.32
2022-12-08T14:37:08.171Z,18.23
2022-12-08T14:39:55.802Z,19.53
2022-12-08T14:42:43.428Z,20.48
2022-12-08T14:45:31.106Z,22.24
2022-12-08T14:48:18.711Z,22.61
2022-12-08T14:51:06.319Z,23.79
2022-12-08T14:53:53.987Z,24.06
2022-12-08T14:56:41.625Z,23.93
2022-12-08T14:59:29.229Z,23.49
2022-12-08T15:02:16.831Z,23.55
2022-12-08T15:05:04.500Z,23.18
2022-12-08T15:07:52.208Z,23.95
2022-12-08T15:10:39.851Z,23.41
2022-12-08T15:13:27.435Z,23.80
2022-12-08T15:16:15.055Z,23.28
2022-12-08T15:19:02.678Z,24.44
2022-12-08T15:21:50.271Z,26.48
2022-12-08T15:24:34.827Z,24.61
2022-12-08T15:27:02.202Z,24.29
2022-12-08T15:29:48.398Z,24.49
2022-12-08T15:32:34.377Z,25.33
2022-12-08T15:35:21.993Z,46.19
2022-12-08T15:38:09.564Z,22.40
2022-12-08T15:40:57.163Z,18.33
2022-12-08T15:43:44.742Z,20.23
2022-12-08T15:46:32.396Z,21.18
2022-12-08T15:49:20.037Z,21.55
2022-12-08T15:52:11.694Z,21.56
2022-12-08T15:54:59.568Z,21.31
2022-12-08T16:00:55.459Z,19.02
2022-12-08T16:04:27.532Z,20.15
2022-12-08T16:07:20.432Z,19.67
2022-12-08T16:09:58.617Z,21.40
2022-12-08T16:13:48.211Z,20.13
2022-12-08T16:16:00.641Z,19.40
2022-12-08T16:18:48.851Z,19.14
2022-12-08T16:24:23.778Z,19.73
2022-12-08T16:30:17.124Z,20.11
2022-12-08T16:33:04.728Z,20.91
2022-12-08T16:35:53.608Z,20.50
2022-12-08T16:38:41.196Z,22.26
2022-12-08T16:41:28.799Z,22.84
2022-12-08T16:44:16.364Z,22.29
2022-12-08T16:47:03.968Z,21.92
2022-12-08T16:49:51.599Z,22.88
2022-12-08T16:52:39.193Z,21.81
2022-12-08T16:55:26.766Z,22.16
2022-12-08T16:58:14.360Z,23.10
2022-12-08T17:01:02.005Z,23.62
2022-12-08T17:04:14.465Z,23.02
2022-12-08T17:06:57.146Z,23.69
2022-12-08T17:09:44.745Z,23.06
2022-12-08T17:12:32.375Z,23.36
2022-12-08T17:15:19.976Z,22.16
2022-12-08T17:18:07.552Z,22.34
2022-12-08T17:20:55.139Z,22.68
2022-12-08T17:23:42.730Z,23.02
2022-12-08T17:26:30.362Z,23.29
2022-12-08T17:29:17.964Z,23.32
2022-12-08T17:32:05.562Z,23.91
2022-12-08T17:34:53.222Z,23.77
2022-12-08T17:37:40.802Z,23.14
2022-12-08T17:40:28.612Z,22.88
2022-12-08T17:43:16.201Z,23.08
2022-12-08T17:46:03.893Z,23.05
2022-12-08T17:48:51.491Z,23.14
2022-12-08T17:51:39.079Z,23.49
2022-12-08T17:54:26.656Z,24.60
2022-12-08T17:57:14.230Z,24.67
2022-12-08T18:00:01.863Z,23.75
2022-12-08T18:02:49.528Z,23.99
2022-12-08T18:05:37.179Z,24.60
2022-12-08T18:08:24.863Z,24.69
2022-12-08T18:11:12.480Z,25.58
2022-12-08T18:14:00.109Z,25.41
2022-12-08T18:16:47.789Z,25.79
2022-12-08T18:19:35.459Z,26.19
2022-12-08T18:22:23.035Z,26.44
2022-12-08T18:25:10.643Z,26.76
2022-12-08T18:27:58.208Z,26.82
2022-12-08T18:30:45.892Z,26.53
2022-12-08T18:33:33.549Z,27.02
2022-12-08T18:36:21.150Z,27.89
2022-12-08T18:39:11.001Z,27.78
2022-12-08T18:41:58.779Z,26.87
2022-12-08T18:44:46.383Z,27.54
2022-12-08T18:47:33.934Z,27.15
2022-12-08T18:50:21.549Z,27.73
2022-12-08T18:53:09.121Z,27.89
2022-12-08T18:55:56.790Z,27.82
2022-12-08T18:58:44.358Z,28.38
2022-12-08T19:01:31.996Z,28.70
2022-12-08T19:04:28.379Z,29.02
2022-12-08T19:07:16.721Z,29.10
2022-12-08T19:10:04.545Z,29.70
2022-12-08T19:12:52.357Z,30.73
2022-12-08T19:15:39.973Z,30.12
2022-12-08T19:18:27.645Z,29.41
2022-12-08T19:21:15.215Z,30.21
2022-12-08T19:24:02.784Z,29.45
2022-12-08T19:26:50.381Z,29.95
2022-12-08T19:29:37.979Z,30.25
2022-12-08T19:32:25.591Z,29.90
2022-12-08T19:35:13.199Z,30.52
2022-12-08T19:38:00.775Z,29.33
2022-12-08T19:40:48.370Z,29.69
2022-12-08T19:43:36.000Z,29.31
2022-12-08T19:46:23.736Z,29.93
2022-12-08T19:49:11.387Z,29.33
2022-12-08T19:51:58.989Z,30.30
2022-12-08T19:54:46.579Z,29.11
2022-12-08T19:57:34.153Z,30.01
2022-12-08T20:00:21.770Z,30.31
2022-12-08T20:03:09.491Z,31.51
2022-12-08T20:05:57.147Z,30.90
2022-12-08T20:08:50.227Z,30.63
2022-12-08T20:11:38.248Z,30.51
2022-12-08T20:14:25.858Z,30.46
2022-12-08T20:17:13.430Z,29.86
2022-12-08T20:20:06.538Z,30.92
2022-12-08T20:22:54.871Z,31.21
2022-12-08T20:25:42.501Z,31.68
2022-12-08T20:28:30.084Z,31.30
2022-12-08T20:31:17.743Z,31.26
2022-12-08T20:34:05.406Z,32.40
2022-12-08T20:36:53.027Z,32.55
2022-12-08T20:39:40.594Z,32.15
2022-12-08T20:42:28.210Z,32.36
2022-12-08T20:45:15.801Z,31.25
2022-12-08T20:48:03.503Z,31.12
2022-12-08T20:50:51.095Z,31.12
2022-12-08T20:53:38.871Z,30.83
2022-12-08T20:56:26.514Z,30.63
2022-12-08T20:59:14.256Z,30.37
2022-12-08T21:02:02.127Z,29.99
2022-12-08T21:04:50.016Z,30.38
2022-12-08T21:07:37.730Z,29.39
2022-12-08T21:10:25.417Z,28.68
2022-12-08T21:13:13.025Z,28.52
2022-12-08T21:16:00.943Z,28.32
2022-12-08T21:18:48.714Z,27.41
2022-12-08T21:21:36.493Z,27.73
2022-12-08T21:24:26.621Z,27.47
2022-12-08T21:27:17.941Z,27.16
2022-12-08T21:30:06.144Z,26.20
2022-12-08T21:32:54.146Z,24.87
2022-12-08T21:35:41.850Z,23.77
2022-12-08T21:38:29.545Z,25.54
2022-12-08T21:41:17.190Z,24.53
2022-12-08T21:44:04.871Z,24.03
2022-12-08T21:46:52.602Z,24.30
2022-12-08T21:49:40.427Z,24.10
2022-12-08T21:52:28.167Z,24.22
2022-12-08T21:55:17.777Z,24.24
2022-12-08T21:58:05.576Z,24.34
2022-12-08T22:00:53.433Z,23.75
2022-12-08T22:03:41.149Z,23.66
2022-12-08T22:06:29.095Z,23.66
2022-12-08T22:09:16.979Z,22.85
2022-12-08T22:12:04.731Z,23.48
2022-12-08T22:14:52.452Z,24.64
2022-12-08T22:17:40.170Z,24.37
2022-12-08T22:20:28.200Z,24.54
2022-12-08T22:23:15.952Z,24.51
2022-12-08T22:26:03.684Z,24.10
2022-12-08T22:28:51.311Z,24.79
2022-12-08T22:31:38.950Z,23.87
2022-12-08T22:34:26.831Z,23.87
2022-12-08T22:37:14.409Z,23.96
2022-12-08T22:40:02.024Z,23.91
2022-12-08T22:42:49.628Z,24.18
2022-12-08T22:45:37.537Z,24.16
2022-12-08T22:48:25.417Z,23.90
2022-12-08T22:51:13.028Z,24.63
2022-12-08T22:54:00.593Z,24.60
2022-12-08T22:56:48.228Z,24.71
2022-12-08T22:59:35.817Z,25.81
2022-12-08T23:02:23.538Z,24.65
2022-12-08T23:05:13.183Z,24.77
2022-12-08T23:08:01.139Z,24.95
2022-12-08T23:10:48.917Z,24.31
2022-12-08T23:13:36.563Z,24.75
2022-12-08T23:16:24.437Z,25.66
2022-12-08T23:19:12.170Z,25.79
2022-12-08T23:21:59.755Z,26.10
2022-12-08T23:24:47.592Z,24.72
2022-12-08T23:27:35.189Z,25.83
2022-12-08T23:30:22.777Z,26.39
2022-12-08T23:33:10.640Z,26.50
2022-12-08T23:35:58.390Z,26.59
2022-12-08T23:38:46.188Z,26.91
2022-12-08T23:41:33.833Z,27.67
2022-12-08T23:44:21.432Z,27.40
2022-12-08T23:47:09.147Z,28.00
2022-12-08T23:49:56.855Z,27.29
2022-12-08T23:52:44.484Z,27.76
2022-12-08T23:55:32.102Z,27.62
2022-12-08T23:58:19.718Z,27.37
